Pretty Lady — 9HVY9 — position and weather

sailwx.info

Track history (hours):
 
Tides and Currents Weather Stations Pressure Air Temp Water Temp Dewpoint Dewpoint Depression Visibility Wind Speed Wind Dir Waves Ship Positions

Pretty Lady

Last reported at 2017-Jan-30 15:27 UTC. Time now 2017-Feb-23 00:31 UTC.
Position N 11°07' W 061°22'.
Warning: this ship's position is 23 days out of date.

Length 189 m; draft 11.5 m.

Type: Cargo ship. MMSI: 249617000.

Date/timePositionNaut miles runAvg speedWind from/ knotsBaromVisibWave heightAir tempDewpointWater temp
2017-Jan-30 15:27N 11°07' W 061°22'2 2.0
2017-Jan-30 14:33N 11°05' W 061°23'2 1.8
2017-Jan-30 13:31N 11°04' W 061°24'5 0.2
2017-Jan-29 16:32N 11°03' W 061°28'3 0.5
2017-Jan-29 10:25N 11°05' W 061°30'2 0.9
2017-Jan-29 08:07N 11°05' W 061°28'3 0.8
2017-Jan-29 04:33N 11°06' W 061°26'1 0.7
2017-Jan-29 02:33N 11°05' W 061°25'1 0.8
2017-Jan-29 01:08N 11°04' W 061°24'2 0.8
2017-Jan-28 23:17N 11°03' W 061°25'1 1.1
2017-Jan-28 22:16N 11°02' W 061°26'1 1.0
2017-Jan-28 21:33N 11°02' W 061°26'3 1.3
2017-Jan-28 19:23N 10°60' W 061°29'1 0.1
2017-Jan-28 11:24N 11°00' W 061°27'0 0.3
2017-Jan-28 10:09N 11°00' W 061°27'0 0.3
2017-Jan-28 09:34N 11°00' W 061°27'1 0.5
2017-Jan-28 08:31N 11°01' W 061°26'1 0.4
2017-Jan-28 06:33N 11°01' W 061°26'16 7.5
2017-Jan-28 04:28N 11°01' W 061°10'  
Track history (hours):
 
Tides and Currents Weather Stations Pressure Air Temp Water Temp Dewpoint Dewpoint Depression Visibility Wind Speed Wind Dir Waves Ship Positions

Pretty Lady

Last reported at 2017-Jan-30 15:27 UTC. Time now 2017-Feb-23 00:31 UTC.
Position N 11°07' W 061°22'.
Warning: this ship's position is 23 days out of date.

Length 189 m; draft 11.5 m.

Type: Cargo ship. MMSI: 249617000.

Date/timePositionNaut miles runAvg speedWind from/ knotsBaromVisibWave heightAir tempDewpointWater temp
2017-Jan-30 15:27N 11°07' W 061°22'2 2.0
2017-Jan-30 14:33N 11°05' W 061°23'2 1.8
2017-Jan-30 13:31N 11°04' W 061°24'5 0.2
2017-Jan-29 16:32N 11°03' W 061°28'3 0.5
2017-Jan-29 10:25N 11°05' W 061°30'2 0.9
2017-Jan-29 08:07N 11°05' W 061°28'3 0.8
2017-Jan-29 04:33N 11°06' W 061°26'1 0.7
2017-Jan-29 02:33N 11°05' W 061°25'1 0.8
2017-Jan-29 01:08N 11°04' W 061°24'2 0.8
2017-Jan-28 23:17N 11°03' W 061°25'1 1.1
2017-Jan-28 22:16N 11°02' W 061°26'1 1.0
2017-Jan-28 21:33N 11°02' W 061°26'3 1.3
2017-Jan-28 19:23N 10°60' W 061°29'1 0.1
2017-Jan-28 11:24N 11°00' W 061°27'0 0.3
2017-Jan-28 10:09N 11°00' W 061°27'0 0.3
2017-Jan-28 09:34N 11°00' W 061°27'1 0.5
2017-Jan-28 08:31N 11°01' W 061°26'1 0.4
2017-Jan-28 06:33N 11°01' W 061°26'16 7.5
2017-Jan-28 04:28N 11°01' W 061°10'  

Dump ship's entire track history